Terminal Aerodrome Forecast
Issued by NWS Bismarck, ND

Home | Current Version | Previous Version | Graphics & Text | Print | Product List | Glossary On
Versions: 1 2 3 4 5 6 7 8 9 10 11 12 13 14 15 16
000
FTUS43 KBIS 140400 AAA
TAFISN
TAF AMD
KISN 140404Z 1404/1424 32012KT P6SM BKN025 OVC035
      TEMPO 1404/1406 -SN BKN020
     FM140600 36005KT P6SM BKN025 OVC035
     FM140900 35009KT P6SM FEW040=

USA.gov is the U.S. government's official web portal to all federal, state and local government web resources and services.